Time;durP1;ratioP1;P1;durP2;ratioP2;P2;SDS_P1;SDS_P2;PMS_P1;PMS_P2;Temp;Humidity;BMP_temperature;BMP_pressure;BME280_temperature;BME280_humidity;BME280_pressure;Samples;Min_cycle;Max_cycle;Signal;HPM_P1;HPM_P2
2023/01/21 00:00:10;;;;;;;;;;;;;;;25.43;37.17;94286.94;4937157;29;9067;-62
2023/01/21 00:02:44;;;;;;;;;;;;;;;25.43;36.98;94289.69;4967843;28;9224;-63
2023/01/21 00:05:14;;;;;;;;;;;;;;;25.43;36.33;94292.47;4955996;28;9567;-62
2023/01/21 00:07:56;;;;;;;;;;;;;;;25.43;36.51;94295.97;4943327;29;9366;-62
2023/01/21 00:10:25;;;;;;;;;;;;;;;25.45;37.52;94302.97;4947319;28;9751;-62
2023/01/21 00:13:11;;;;;;;;;;;;;;;25.41;37.14;94292.19;4939529;29;9714;-62
2023/01/21 00:15:37;;;;;;;;;;;;;;;25.41;36.99;94298.47;4951627;29;8943;-62
2023/01/21 00:18:08;;;;;;;;;;;;;;;25.42;37.24;94296.47;4937967;29;9713;-62
2023/01/21 00:20:36;;;;;;;;;;;;;;;25.42;36.35;94302.00;4937448;29;7019;-62
2023/01/21 00:23:02;;;;;;;;;;;;;;;25.41;36.63;94303.97;4953750;29;7261;-62
2023/01/21 00:25:29;;;;;;;;;;;;;;;25.42;36.90;94308.22;4952503;29;6881;-63
2023/01/21 00:28:06;;;;;;;;;;;;;;;25.40;36.06;94305.22;4937768;29;7248;-62
2023/01/21 00:31:03;;;;;;;;;;;;;;;25.41;37.08;94305.97;4937216;29;7589;-63
2023/01/21 00:33:42;;;;;;;;;;;;;;;25.39;36.52;94309.22;4891333;29;7018;-63
2023/01/21 00:36:18;;;;;;;;;;;;;;;25.42;36.86;94305.47;4894914;29;7675;-62
2023/01/21 00:38:56;;;;;;;;;;;;;;;25.42;37.18;94305.47;4913393;29;7302;-63
2023/01/21 00:42:00;;;;;;;;;;;;;;;25.42;36.15;94308.22;4906788;29;9421;-63
2023/01/21 00:44:31;;;;;;;;;;;;;;;25.40;36.68;94310.00;4891506;29;9187;-62
2023/01/21 00:46:57;;;;;;;;;;;;;;;25.41;36.64;94306.72;4897917;29;9396;-63
2023/01/21 00:49:23;;;;;;;;;;;;;;;25.42;36.70;94304.75;4897877;29;7870;-62
2023/01/21 00:51:50;;;;;;;;;;;;;;;25.42;36.63;94299.25;4897581;29;9821;-63
2023/01/21 00:54:16;;;;;;;;;;;;;;;25.41;36.42;94295.69;4881108;29;7589;-63
2023/01/21 00:56:44;;;;;;;;;;;;;;;25.38;36.10;94285.69;4895652;29;7000;-62
2023/01/21 00:59:13;;;;;;;;;;;;;;;25.42;36.18;94291.69;4913983;29;9315;-63
2023/01/21 01:01:41;;;;;;;;;;;;;;;25.43;36.48;94286.94;4901062;29;8708;-62
2023/01/21 01:04:09;;;;;;;;;;;;;;;25.42;36.67;94286.19;4884537;29;8953;-62
2023/01/21 01:06:35;;;;;;;;;;;;;;;25.41;36.34;94295.69;4888388;29;9283;-63
2023/01/21 01:09:01;;;;;;;;;;;;;;;25.41;36.87;94294.94;4880816;29;9006;-63
2023/01/21 01:11:29;;;;;;;;;;;;;;;25.41;36.68;94292.19;4890054;29;9085;-63
2023/01/21 01:13:58;;;;;;;;;;;;;;;25.37;36.77;94286.22;4892277;29;9506;-63
2023/01/21 01:16:27;;;;;;;;;;;;;;;25.42;36.71;94290.97;4903565;29;7032;-63
2023/01/21 01:18:55;;;;;;;;;;;;;;;25.39;36.35;94292.72;4936886;28;8162;-63
2023/01/21 01:21:22;;;;;;;;;;;;;;;25.40;37.08;94294.19;4937322;28;9185;-62
2023/01/21 01:23:53;;;;;;;;;;;;;;;25.40;36.97;94290.72;4937074;28;9325;-62
2023/01/21 01:26:21;;;;;;;;;;;;;;;25.40;37.15;94291.44;4951922;28;8739;-62
2023/01/21 01:28:49;;;;;;;;;;;;;;;25.39;36.41;94291.97;4946884;28;7114;-63
2023/01/21 01:31:17;;;;;;;;;;;;;;;25.36;36.91;94288.22;4934112;28;7254;-62
2023/01/21 01:33:44;;;;;;;;;;;;;;;25.37;37.40;94300.00;4929341;28;9013;-62
2023/01/21 01:36:16;;;;;;;;;;;;;;;25.37;36.51;94302.75;4936065;28;9138;-62
2023/01/21 01:38:43;;;;;;;;;;;;;;;25.36;36.50;94292.97;4953079;28;8882;-62
2023/01/21 01:41:17;;;;;;;;;;;;;;;25.38;36.54;94301.50;4940904;28;9464;-63
2023/01/21 01:44:20;;;;;;;;;;;;;;;25.37;36.17;94300.00;4934074;28;7341;-62
2023/01/21 01:46:46;;;;;;;;;;;;;;;25.39;36.88;94303.72;4830288;29;9016;-62
2023/01/21 01:49:20;;;;;;;;;;;;;;;25.40;36.77;94301.72;4827153;29;9718;-62
2023/01/21 01:51:55;;;;;;;;;;;;;;;25.40;37.14;94298.97;4826697;29;9075;-62
2023/01/21 01:54:35;;;;;;;;;;;;;;;25.40;36.46;94293.47;4822890;29;8297;-63
2023/01/21 01:57:09;;;;;;;;;;;;;;;25.38;36.20;94296.00;4838101;29;7258;-63
2023/01/21 01:59:37;;;;;;;;;;;;;;;25.39;36.13;94300.22;4823440;29;9342;-63
2023/01/21 02:02:14;;;;;;;;;;;;;;;25.37;36.70;94295.22;4838081;29;8240;-63
2023/01/21 02:05:03;;;;;;;;;;;;;;;25.39;37.03;94298.22;4827323;29;7258;-63
2023/01/21 02:07:44;;;;;;;;;;;;;;;25.41;36.23;94297.69;4833470;29;9012;-63
2023/01/21 02:10:48;;;;;;;;;;;;;;;25.40;37.07;94299.69;4822114;29;8951;-62
2023/01/21 02:13:16;;;;;;;;;;;;;;;25.40;36.90;94290.72;4792685;29;7262;-63
2023/01/21 02:16:02;;;;;;;;;;;;;;;25.40;36.34;94293.47;4811634;29;7252;-63
2023/01/21 02:18:31;;;;;;;;;;;;;;;25.38;36.27;94290.47;4820597;29;7286;-63
2023/01/21 02:21:22;;;;;;;;;;;;;;;25.39;36.30;94291.97;4820448;29;7587;-63
2023/01/21 02:24:07;;;;;;;;;;;;;;;25.38;36.95;94287.72;4844981;29;8602;-63
2023/01/21 02:26:48;;;;;;;;;;;;;;;25.40;36.51;94290.72;4899308;29;9323;-63
2023/01/21 02:29:14;;;;;;;;;;;;;;;25.40;36.74;94290.72;4893568;29;9048;-63
2023/01/21 02:31:57;;;;;;;;;;;;;;;25.39;36.44;94283.69;4897659;29;9377;-63
2023/01/21 02:35:09;;;;;;;;;;;;;;;25.39;36.04;94291.97;4899003;29;7059;-63
2023/01/21 02:37:58;;;;;;;;;;;;;;;25.38;36.27;94284.97;4896078;29;8964;-63
2023/01/21 02:41:02;;;;;;;;;;;;;;;25.38;36.84;94296.72;4895358;29;7271;-63
2023/01/21 02:43:45;;;;;;;;;;;;;;;25.37;37.02;94292.47;4905884;28;7248;-63
2023/01/21 02:46:21;;;;;;;;;;;;;;;25.39;36.54;94297.47;4931716;28;9267;-63
2023/01/21 02:49:08;;;;;;;;;;;;;;;25.39;36.28;94291.97;4949804;28;7494;-62
2023/01/21 02:52:06;;;;;;;;;;;;;;;25.40;36.29;94298.97;4937137;28;7381;-63
2023/01/21 02:54:37;;;;;;;;;;;;;;;25.38;36.20;94299.47;4912901;29;8701;-62
2023/01/21 02:57:15;;;;;;;;;;;;;;;25.35;36.48;94289.50;4896542;29;7185;-62
2023/01/21 02:59:48;;;;;;;;;;;;;;;25.36;36.60;94290.97;4892994;29;7952;-62
2023/01/21 03:02:46;;;;;;;;;;;;;;;25.36;36.33;94292.97;4884463;29;9058;-63
2023/01/21 03:05:26;;;;;;;;;;;;;;;25.36;36.62;94292.97;4827369;29;8753;-62
2023/01/21 03:08:04;;;;;;;;;;;;;;;25.37;36.08;94288.97;4829198;29;7273;-63
2023/01/21 03:10:57;;;;;;;;;;;;;;;25.37;36.25;94297.22;4830796;29;7238;-63
2023/01/21 03:16:56;;;;;;;;;;;;;;;25.37;36.62;94298.00;4835537;29;9025;-63
2023/01/21 03:19:41;;;;;;;;;;;;;;;25.36;36.09;94287.47;4835688;29;9792;-62
2023/01/21 03:22:20;;;;;;;;;;;;;;;25.36;36.87;94287.47;4836231;29;8138;-62
2023/01/21 03:24:52;;;;;;;;;;;;;;;25.36;36.74;94287.47;4836305;29;8769;-63
2023/01/21 03:27:23;;;;;;;;;;;;;;;25.36;36.78;94287.47;4822618;29;7412;-63
2023/01/21 03:30:14;;;;;;;;;;;;;;;25.36;36.94;94284.72;4822539;29;7090;-63
2023/01/21 03:32:47;;;;;;;;;;;;;;;25.36;36.91;94281.97;4873106;29;6993;-62
2023/01/21 03:35:19;;;;;;;;;;;;;;;25.36;36.84;94273.69;4859128;29;8760;-62
2023/01/21 03:38:30;;;;;;;;;;;;;;;25.35;36.42;94280.47;4877398;29;7075;-63
2023/01/21 03:41:11;;;;;;;;;;;;;;;25.35;36.17;94286.75;4822997;29;9086;-62
2023/01/21 03:43:47;;;;;;;;;;;;;;;25.36;36.68;94287.47;4895844;29;7645;-62
2023/01/21 03:46:53;;;;;;;;;;;;;;;25.35;35.99;94286.00;4873454;29;7296;-63
2023/01/21 03:49:33;;;;;;;;;;;;;;;25.34;36.44;94289.97;4885746;29;7050;-63
2023/01/21 03:52:13;;;;;;;;;;;;;;;25.36;36.37;94287.47;4892146;29;7583;-63
2023/01/21 03:54:42;;;;;;;;;;;;;;;25.35;36.67;94283.22;4879272;29;9097;-62
2023/01/21 03:57:08;;;;;;;;;;;;;;;25.36;36.14;94287.47;4870669;29;9255;-63
2023/01/21 03:59:47;;;;;;;;;;;;;;;25.37;36.21;94283.47;4890604;29;9728;-63
2023/01/21 04:02:22;;;;;;;;;;;;;;;25.37;35.98;94292.47;4879440;29;7709;-62
2023/01/21 04:05:15;;;;;;;;;;;;;;;25.36;36.13;94298.47;4878857;29;9569;-63
2023/01/21 04:07:41;;;;;;;;;;;;;;;25.36;36.17;94292.97;4880134;29;7372;-62
2023/01/21 04:10:08;;;;;;;;;;;;;;;25.33;36.39;94294.00;4892969;29;7596;-62
2023/01/21 04:12:34;;;;;;;;;;;;;;;25.36;36.51;94301.22;4891329;29;9513;-63
2023/01/21 04:15:02;;;;;;;;;;;;;;;25.36;36.45;94293.72;4886870;29;7496;-63
2023/01/21 04:17:28;;;;;;;;;;;;;;;25.35;36.69;94299.75;4887187;28;9395;-63
2023/01/21 04:19:54;;;;;;;;;;;;;;;25.34;36.87;94289.97;4953374;28;7233;-62
2023/01/21 04:22:47;;;;;;;;;;;;;;;25.34;36.55;94290.75;4951475;28;9376;-63
2023/01/21 04:25:14;;;;;;;;;;;;;;;25.34;36.45;94296.25;4863717;29;8211;-62
2023/01/21 04:27:51;;;;;;;;;;;;;;;25.34;36.51;94293.50;4864220;29;9164;-63
2023/01/21 04:30:18;;;;;;;;;;;;;;;25.35;36.31;94291.50;4872556;29;8616;-62
2023/01/21 04:32:45;;;;;;;;;;;;;;;25.33;36.69;94285.75;4860319;29;7528;-63
2023/01/21 04:35:11;;;;;;;;;;;;;;;25.33;36.95;94289.25;4875653;29;7196;-63
2023/01/21 04:37:39;;;;;;;;;;;;;;;25.35;36.19;94299.75;4877419;29;9039;-63
2023/01/21 04:40:08;;;;;;;;;;;;;;;25.36;36.76;94298.47;4860300;29;9140;-63
2023/01/21 04:42:37;;;;;;;;;;;;;;;25.35;36.87;94295.00;4844665;29;9160;-63
2023/01/21 04:45:03;;;;;;;;;;;;;;;25.37;36.41;94308.25;4861200;29;9071;-63
2023/01/21 04:47:29;;;;;;;;;;;;;;;25.37;36.29;94305.50;4864934;29;7024;-62
2023/01/21 04:49:55;;;;;;;;;;;;;;;25.36;36.90;94299.22;4871908;29;9049;-63
2023/01/21 04:52:23;;;;;;;;;;;;;;;25.35;36.31;94308.75;4862096;29;7003;-63
2023/01/21 04:54:49;;;;;;;;;;;;;;;25.34;36.61;94303.75;4874259;29;8726;-63
2023/01/21 04:57:17;;;;;;;;;;;;;;;25.34;37.16;94301.00;4859967;29;7189;-63
2023/01/21 04:59:45;;;;;;;;;;;;;;;25.32;36.48;94298.00;4870934;29;7605;-62
2023/01/21 05:02:13;;;;;;;;;;;;;;;25.36;36.91;94298.47;4917314;28;7663;-62
2023/01/21 05:04:43;;;;;;;;;;;;;;;25.36;37.10;94298.47;4953659;28;7006;-62
2023/01/21 05:07:10;;;;;;;;;;;;;;;25.35;36.94;94302.50;4951452;28;7030;-63
2023/01/21 05:09:39;;;;;;;;;;;;;;;25.35;35.98;94302.50;4934949;29;7432;-63
2023/01/21 05:12:07;;;;;;;;;;;;;;;25.33;36.54;94294.00;4953467;28;9392;-63
2023/01/21 05:14:41;;;;;;;;;;;;;;;25.33;36.12;94294.75;4953253;28;7529;-62
2023/01/21 05:17:08;;;;;;;;;;;;;;;25.34;36.30;94298.25;4924880;28;9304;-63
2023/01/21 05:19:34;;;;;;;;;;;;;;;25.35;36.25;94291.50;4954634;28;9118;-62
2023/01/21 05:22:00;;;;;;;;;;;;;;;25.35;36.17;94302.50;4938065;28;9087;-63
2023/01/21 05:24:26;;;;;;;;;;;;;;;25.34;36.16;94296.25;4933302;29;7403;-62
2023/01/21 05:26:52;;;;;;;;;;;;;;;25.35;35.93;94297.75;4950815;28;8696;-63
2023/01/21 05:29:18;;;;;;;;;;;;;;;25.35;36.00;94294.25;4949969;28;7118;-63
2023/01/21 05:31:44;;;;;;;;;;;;;;;25.34;36.46;94299.00;4935614;28;7210;-62
2023/01/21 05:34:15;;;;;;;;;;;;;;;25.34;36.53;94296.25;4926580;28;9017;-62
2023/01/21 05:36:41;;;;;;;;;;;;;;;25.35;35.83;94302.50;4952783;28;7259;-63
2023/01/21 05:39:09;;;;;;;;;;;;;;;25.33;36.40;94297.53;4936756;28;8620;-63
2023/01/21 05:41:38;;;;;;;;;;;;;;;25.31;35.85;94293.78;4949635;28;9124;-62
2023/01/21 05:44:04;;;;;;;;;;;;;;;25.34;36.67;94295.50;4942493;28;7077;-63
2023/01/21 05:46:33;;;;;;;;;;;;;;;25.33;36.04;94300.28;4934455;28;7003;-63
2023/01/21 05:48:59;;;;;;;;;;;;;;;25.34;36.58;94301.00;4954432;28;9483;-62
2023/01/21 05:51:33;;;;;;;;;;;;;;;25.34;36.81;94298.25;4951694;28;7271;-63
2023/01/21 05:53:59;;;;;;;;;;;;;;;25.35;36.39;94302.50;4954447;28;7141;-63
2023/01/21 05:56:28;;;;;;;;;;;;;;;25.36;36.04;94315.00;4940713;28;7569;-63
2023/01/21 05:58:53;;;;;;;;;;;;;;;25.34;36.02;94312.00;4952769;28;7512;-63
2023/01/21 06:01:19;;;;;;;;;;;;;;;25.34;36.02;94309.25;4945254;28;7266;-63
2023/01/21 06:03:45;;;;;;;;;;;;;;;25.34;36.24;94309.25;4937299;28;9098;-63
2023/01/21 06:06:11;;;;;;;;;;;;;;;25.33;36.39;94313.28;4918200;28;7211;-62
2023/01/21 06:08:38;;;;;;;;;;;;;;;25.34;36.92;94309.25;4955215;28;9002;-63
2023/01/21 06:11:11;;;;;;;;;;;;;;;25.33;36.20;94314.03;4951024;28;9845;-62
2023/01/21 06:14:13;;;;;;;;;;;;;;;25.33;36.00;94313.28;4935364;29;7131;-63
2023/01/21 06:16:43;;;;;;;;;;;;;;;25.33;36.20;94308.53;4855310;29;9473;-63
2023/01/21 06:19:10;;;;;;;;;;;;;;;25.33;36.33;94311.28;4868274;29;8968;-63
2023/01/21 06:21:45;;;;;;;;;;;;;;;25.32;36.70;94309.03;4863747;29;7863;-63
2023/01/21 06:24:11;;;;;;;;;;;;;;;25.32;36.21;94309.03;4862387;29;7490;-63
2023/01/21 06:26:49;;;;;;;;;;;;;;;25.29;36.34;94308.03;4872455;29;9615;-63
2023/01/21 06:29:20;;;;;;;;;;;;;;;25.31;36.22;94313.81;4862138;29;8418;-62
2023/01/21 06:31:46;;;;;;;;;;;;;;;25.31;36.41;94318.56;4862148;29;9341;-62
2023/01/21 06:34:31;;;;;;;;;;;;;;;25.31;36.14;94315.81;4861923;29;9067;-63
2023/01/21 06:36:59;;;;;;;;;;;;;;;25.30;37.15;94322.56;4861776;29;9018;-63
2023/01/21 06:39:27;;;;;;;;;;;;;;;25.30;36.19;94314.28;4862326;29;9365;-63
2023/01/21 06:41:53;;;;;;;;;;;;;;;25.28;36.91;94311.31;4874936;29;9439;-62
2023/01/21 06:44:24;;;;;;;;;;;;;;;25.29;36.19;94318.31;4861282;29;7269;-62
2023/01/21 06:46:59;;;;;;;;;;;;;;;25.31;37.03;94321.31;4857516;29;9086;-62
2023/01/21 06:49:26;;;;;;;;;;;;;;;25.25;36.51;94315.81;4861315;29;7440;-63
2023/01/21 06:51:52;;;;;;;;;;;;;;;25.30;36.47;94328.81;4932802;28;7262;-63
2023/01/21 06:54:20;;;;;;;;;;;;;;;25.31;36.71;94324.81;4940165;28;7278;-62
2023/01/21 06:56:48;;;;;;;;;;;;;;;25.31;36.28;94335.81;4926506;28;7604;-62
2023/01/21 06:59:17;;;;;;;;;;;;;;;25.32;36.24;94329.06;4953894;28;7781;-63
2023/01/21 07:01:47;;;;;;;;;;;;;;;25.35;36.92;94330.03;4944046;28;7695;-62
2023/01/21 07:04:19;;;;;;;;;;;;;;;25.34;36.09;94329.28;4936906;28;8684;-62
2023/01/21 07:07:02;;;;;;;;;;;;;;;25.37;36.85;94333.03;4953303;28;7282;-62
2023/01/21 07:09:37;;;;;;;;;;;;;;;25.38;36.57;94335.25;4954017;28;7047;-62
2023/01/21 07:12:09;;;;;;;;;;;;;;;25.40;36.37;94337.53;4930591;28;7218;-63
2023/01/21 07:14:44;;;;;;;;;;;;;;;25.40;36.18;94340.28;4937099;28;8968;-63
2023/01/21 07:17:13;;;;;;;;;;;;;;;25.40;37.07;94334.78;4949238;28;7322;-62
2023/01/21 07:19:38;;;;;;;;;;;;;;;25.41;37.06;94339.00;4926851;29;8947;-63
2023/01/21 07:22:07;;;;;;;;;;;;;;;25.45;36.56;94342.25;4944652;28;8961;-62
2023/01/21 07:24:33;;;;;;;;;;;;;;;25.49;36.17;94339.25;4931190;28;9593;-62
2023/01/21 07:26:59;;;;;;;;;;;;;;;25.51;36.28;94351.25;4935390;28;7291;-62
2023/01/21 07:29:53;;;;;;;;;;;;;;;25.48;35.81;94355.00;4951755;28;7887;-62
2023/01/21 07:32:26;;;;;;;;;;;;;;;25.44;36.43;94354.53;4953712;28;9185;-62
2023/01/21 07:35:26;;;;;;;;;;;;;;;25.42;36.58;94351.56;4954106;28;7244;-62
2023/01/21 07:38:03;;;;;;;;;;;;;;;25.41;36.62;94356.28;4954219;28;7498;-62
2023/01/21 07:41:02;;;;;;;;;;;;;;;25.44;36.35;94371.06;4934188;29;7266;-62
2023/01/21 07:43:36;;;;;;;;;;;;;;;25.39;36.65;94372.56;4876645;29;9383;-62
2023/01/21 07:46:17;;;;;;;;;;;;;;;25.41;36.61;94366.53;4878679;29;7870;-62
2023/01/21 07:48:53;;;;;;;;;;;;;;;25.40;36.36;94378.81;4880012;29;7043;-62
2023/01/21 07:51:23;;;;;;;;;;;;;;;25.39;36.74;94369.81;4895436;29;9026;-62
2023/01/21 07:53:49;;;;;;;;;;;;;;;25.39;36.61;94369.81;4882790;29;7842;-62
2023/01/21 07:56:19;;;;;;;;;;;;;;;25.37;36.77;94366.06;4894625;29;9306;-62
2023/01/21 07:58:45;;;;;;;;;;;;;;;25.36;37.10;94379.06;4894775;29;8959;-63
2023/01/21 08:01:11;;;;;;;;;;;;;;;25.36;36.74;94375.56;4879642;29;7146;-62
2023/01/21 08:03:40;;;;;;;;;;;;;;;25.34;37.11;94376.09;4895069;29;7003;-62
2023/01/21 08:06:15;;;;;;;;;;;;;;;25.33;37.50;94374.59;4887969;29;7342;-62
2023/01/21 08:08:54;;;;;;;;;;;;;;;25.36;36.85;94365.31;4878183;29;8964;-63
2023/01/21 08:11:29;;;;;;;;;;;;;;;25.43;36.90;94375.06;4889571;29;8987;-62
2023/01/21 08:13:56;;;;;;;;;;;;;;;25.49;36.43;94372.28;4875535;29;9181;-62
2023/01/21 08:16:23;;;;;;;;;;;;;;;25.50;37.47;94371.78;4891512;29;7653;-62
2023/01/21 08:18:54;;;;;;;;;;;;;;;25.54;36.81;94375.00;4880699;29;6894;-62
2023/01/21 08:21:22;;;;;;;;;;;;;;;25.55;37.36;94373.75;4936574;29;7023;-62
2023/01/21 08:23:53;;;;;;;;;;;;;;;25.58;36.57;94374.75;4943290;29;7037;-62
2023/01/21 08:26:19;;;;;;;;;;;;;;;25.55;37.13;94373.00;4949653;29;7425;-63
2023/01/21 08:28:45;;;;;;;;;;;;;;;25.54;37.04;94372.25;4933405;29;6974;-62
2023/01/21 08:31:14;;;;;;;;;;;;;;;25.49;36.47;94373.00;4944614;29;9044;-62
2023/01/21 08:33:46;;;;;;;;;;;;;;;25.44;36.86;94382.06;4934067;29;9645;-63
2023/01/21 08:36:21;;;;;;;;;;;;;;;25.42;36.76;94382.56;4941008;28;9204;-63
2023/01/21 08:38:54;;;;;;;;;;;;;;;25.41;37.55;94385.81;4946847;29;9224;-62
2023/01/21 08:41:25;;;;;;;;;;;;;;;25.42;37.67;94384.59;4949344;28;7423;-62
2023/01/21 08:43:56;;;;;;;;;;;;;;;25.41;37.36;94383.06;4931058;29;7270;-63
2023/01/21 08:46:22;;;;;;;;;;;;;;;25.39;38.24;94386.31;4941534;29;7010;-62
2023/01/21 08:48:51;;;;;;;;;;;;;;;25.41;37.44;94392.06;4943123;29;6878;-62
2023/01/21 08:51:18;;;;;;;;;;;;;;;25.41;38.11;94394.81;4931737;29;9537;-62
2023/01/21 08:53:44;;;;;;;;;;;;;;;25.39;37.30;94391.09;4930678;29;8785;-62
2023/01/21 08:56:12;;;;;;;;;;;;;;;25.42;37.85;94395.59;4929298;29;9031;-62
2023/01/21 08:58:38;;;;;;;;;;;;;;;25.46;37.42;94393.34;4953956;28;6990;-62
2023/01/21 09:01:12;;;;;;;;;;;;;;;25.51;36.67;94403.56;4939107;28;9816;-62
2023/01/21 09:03:38;;;;;;;;;;;;;;;25.54;36.57;94399.03;4951410;28;8744;-63
2023/01/21 09:06:05;;;;;;;;;;;;;;;25.58;36.90;94405.03;4951057;28;6971;-62
2023/01/21 09:08:32;;;;;;;;;;;;;;;25.60;36.50;94399.75;4936238;28;7094;-63
2023/01/21 09:10:59;;;;;;;;;;;;;;;25.59;36.23;94403.75;4928662;28;7127;-62
2023/01/21 09:13:36;;;;;;;;;;;;;;;25.56;37.17;94408.28;4939954;28;7056;-62
2023/01/21 09:16:15;;;;;;;;;;;;;;;25.56;36.33;94408.28;4954566;28;10080;-62
2023/01/21 09:18:48;;;;;;;;;;;;;;;25.57;35.53;94415.28;4953792;28;7109;-62
2023/01/21 09:21:15;;;;;;;;;;;;;;;25.56;35.59;94413.78;4939456;28;7160;-62
2023/01/21 09:23:50;;;;;;;;;;;;;;;25.56;36.42;94413.78;4939621;28;7811;-62
2023/01/21 09:26:19;;;;;;;;;;;;;;;25.54;36.68;94408.03;4949259;28;9018;-62
2023/01/21 09:28:51;;;;;;;;;;;;;;;25.54;36.46;94410.78;4936208;28;7252;-62
2023/01/21 09:31:22;;;;;;;;;;;;;;;25.56;36.87;94415.78;4943577;28;7128;-62
2023/01/21 09:33:52;;;;;;;;;;;;;;;25.54;36.14;94415.56;4952248;28;7199;-62
2023/01/21 09:36:21;;;;;;;;;;;;;;;25.49;36.63;94410.84;4948812;28;7202;-62
2023/01/21 09:38:51;;;;;;;;;;;;;;;25.49;36.91;94403.31;4951294;28;7239;-62
2023/01/21 09:41:47;;;;;;;;;;;;;;;25.50;36.37;94407.56;4952641;28;9022;-62
2023/01/21 09:44:19;;;;;;;;;;;;;;;25.52;36.97;94415.31;4938981;28;7063;-62
2023/01/21 09:47:22;;;;;;;;;;;;;;;25.54;36.35;94410.78;4948016;28;9436;-62
2023/01/21 09:50:08;;;;;;;;;;;;;;;25.56;36.84;94411.03;4875470;29;7287;-62
2023/01/21 09:52:47;;;;;;;;;;;;;;;25.41;30.23;94403.09;4893452;29;7859;-62
2023/01/21 09:55:17;;;;;;;;;;;;;;;25.24;30.53;94412.69;4893166;29;9076;-62
2023/01/21 09:58:01;;;;;;;;;;;;;;;25.13;28.47;94412.72;4877485;29;7135;-62
2023/01/21 10:00:35;;;;;;;;;;;;;;;25.12;28.50;94405.75;4880490;29;7291;-63
2023/01/21 10:03:11;;;;;;;;;;;;;;;25.15;29.15;94399.97;4880531;29;7028;-62
2023/01/21 10:05:49;;;;;;;;;;;;;;;25.15;28.10;94388.19;4891374;29;8711;-62
2023/01/21 10:09:00;;;;;;;;;;;;;;;25.21;27.64;94386.91;4886179;29;7350;-62
2023/01/21 10:11:53;;;;;;;;;;;;;;;25.24;28.28;94396.91;4881137;29;9044;-62
2023/01/21 10:14:32;;;;;;;;;;;;;;;25.30;29.55;94402.38;4859166;29;9057;-63
2023/01/21 10:17:26;;;;;;;;;;;;;;;25.34;28.95;94400.13;4870414;29;7302;-62
2023/01/21 10:20:27;;;;;;;;;;;;;;;25.34;28.96;94394.59;4877673;29;7280;-63
2023/01/21 10:23:34;;;;;;;;;;;;;;;25.37;29.01;94388.84;4858166;29;9142;-62
2023/01/21 10:26:08;;;;;;;;;;;;;;;25.39;30.13;94380.81;4837456;29;7311;-62
2023/01/21 10:28:51;;;;;;;;;;;;;;;25.42;29.61;94390.09;4821390;29;7032;-62
2023/01/21 10:31:29;;;;;;;;;;;;;;;25.40;30.71;94384.34;4824269;29;9088;-62
2023/01/21 10:33:57;;;;;;;;;;;;;;;25.38;30.81;94389.59;4841609;29;8766;-63
2023/01/21 10:36:43;;;;;;;;;;;;;;;25.39;31.15;94391.09;4825702;29;7302;-62
2023/01/21 10:39:57;;;;;;;;;;;;;;;25.38;30.98;94386.84;4838679;29;8736;-62
2023/01/21 10:42:39;;;;;;;;;;;;;;;25.44;30.86;94387.59;4817431;29;9030;-62
2023/01/21 10:46:01;;;;;;;;;;;;;;;25.46;30.94;94384.31;4813701;29;7277;-62
2023/01/21 10:49:21;;;;;;;;;;;;;;;25.45;31.26;94372.53;4820044;29;7252;-62
2023/01/21 10:52:50;;;;;;;;;;;;;;;25.41;31.07;94367.28;4783188;29;8976;-62
2023/01/21 10:55:32;;;;;;;;;;;;;;;25.45;31.09;94366.31;4739134;30;7759;-62
2023/01/21 10:58:25;;;;;;;;;;;;;;;25.46;31.15;94365.03;4721386;30;8621;-62
2023/01/21 11:00:54;;;;;;;;;;;;;;;25.45;31.59;94358.78;4717271;30;8209;-62
2023/01/21 11:03:37;;;;;;;;;;;;;;;25.48;31.40;94354.25;4782305;30;8769;-62
2023/01/21 11:06:18;;;;;;;;;;;;;;;25.46;31.44;94352.03;4783505;30;9031;-62
2023/01/21 11:08:52;;;;;;;;;;;;;;;25.45;31.57;94355.28;4767470;30;9339;-62
2023/01/21 11:11:25;;;;;;;;;;;;;;;25.46;32.61;94362.28;4780815;30;7031;-62
2023/01/21 11:14:26;;;;;;;;;;;;;;;25.46;32.75;94362.28;4774627;29;7187;-62
2023/01/21 11:16:59;;;;;;;;;;;;;;;25.42;33.66;94357.78;4765335;30;9771;-62
2023/01/21 11:19:35;;;;;;;;;;;;;;;25.42;33.87;94346.03;4777831;29;7066;-62
2023/01/21 11:22:21;;;;;;;;;;;;;;;25.45;33.46;94356.03;4766503;29;7398;-62
2023/01/21 11:24:49;;;;;;;;;;;;;;;25.44;33.77;94349.03;4784704;29;8289;-62
2023/01/21 11:27:32;;;;;;;;;;;;;;;25.43;33.58;94347.53;4816010;29;9128;-62
2023/01/21 11:30:01;;;;;;;;;;;;;;;25.43;34.56;94345.53;4828208;29;8235;-62
2023/01/21 11:32:30;;;;;;;;;;;;;;;25.45;34.27;94336.03;4917538;28;7145;-62
2023/01/21 11:35:19;;;;;;;;;;;;;;;25.46;34.23;94343.75;4952923;28;8987;-62
2023/01/21 11:37:52;;;;;;;;;;;;;;;25.45;34.61;94336.75;4919388;29;7317;-62
2023/01/21 11:40:24;;;;;;;;;;;;;;;25.45;34.84;94334.00;4952103;28;9168;-62
2023/01/21 11:43:05;;;;;;;;;;;;;;;25.47;34.08;94336.97;4953588;28;7108;-62
2023/01/21 11:45:39;;;;;;;;;;;;;;;25.46;34.60;94329.25;4947247;28;8983;-62
2023/01/21 11:48:24;;;;;;;;;;;;;;;25.45;34.57;94336.03;4945407;28;9364;-62
2023/01/21 11:51:12;;;;;;;;;;;;;;;25.40;34.59;94332.00;4932926;28;8690;-62
2023/01/21 11:53:40;;;;;;;;;;;;;;;25.42;34.90;94326.78;4944807;28;7241;-62
2023/01/21 11:56:09;;;;;;;;;;;;;;;25.45;35.15;94334.00;4932727;29;9552;-62
2023/01/21 11:58:39;;;;;;;;;;;;;;;25.43;34.16;94331.75;4933010;29;9303;-62
2023/01/21 12:01:19;;;;;;;;;;;;;;;25.45;34.34;94330.50;4948736;28;7228;-63
2023/01/21 12:03:54;;;;;;;;;;;;;;;25.47;34.77;94331.47;4930290;29;7607;-62
2023/01/21 12:06:30;;;;;;;;;;;;;;;25.50;33.86;94329.72;4944392;29;7108;-62
2023/01/21 12:09:03;;;;;;;;;;;;;;;25.52;34.64;94329.94;4915837;29;7082;-62
2023/01/21 12:11:31;;;;;;;;;;;;;;;25.52;34.67;94325.19;4949096;29;9447;-63
2023/01/21 12:14:02;;;;;;;;;;;;;;;25.50;35.01;94327.72;4927248;29;8952;-63
2023/01/21 12:17:06;;;;;;;;;;;;;;;25.51;35.05;94334.72;4940982;29;7248;-62
2023/01/21 12:20:07;;;;;;;;;;;;;;;25.51;34.32;94325.72;4946544;29;7107;-62
2023/01/21 12:22:47;;;;;;;;;;;;;;;25.52;34.72;94322.44;4952591;29;8306;-62
2023/01/21 12:25:47;;;;;;;;;;;;;;;25.52;34.86;94327.94;4952096;29;7043;-63
2023/01/21 12:28:50;;;;;;;;;;;;;;;25.54;35.16;94328.19;4884575;29;9063;-63
2023/01/21 12:31:22;;;;;;;;;;;;;;;25.58;34.65;94330.69;4882585;29;8977;-63
2023/01/21 12:34:09;;;;;;;;;;;;;;;25.59;34.59;94330.16;4890815;29;7846;-63
2023/01/21 12:36:49;;;;;;;;;;;;;;;25.61;35.31;94329.63;4893165;29;7256;-63
2023/01/21 12:39:20;;;;;;;;;;;;;;;25.63;34.79;94327.88;4877317;29;7007;-62
2023/01/21 12:42:03;;;;;;;;;;;;;;;25.63;34.79;94324.34;4886396;29;7165;-62
2023/01/21 12:44:43;;;;;;;;;;;;;;;25.66;34.53;94331.59;4879844;29;7135;-63
2023/01/21 12:47:31;;;;;;;;;;;;;;;25.65;35.17;94336.34;4895230;29;9627;-62
2023/01/21 12:50:04;;;;;;;;;;;;;;;25.65;35.59;94330.09;4893859;29;7352;-62
2023/01/21 12:53:08;;;;;;;;;;;;;;;25.65;34.99;94328.09;4893495;29;9437;-62
2023/01/21 12:56:03;;;;;;;;;;;;;;;25.65;35.07;94333.59;4891645;29;9356;-62
2023/01/21 12:58:35;;;;;;;;;;;;;;;25.64;34.80;94345.91;4875598;29;7024;-62
2023/01/21 13:01:13;;;;;;;;;;;;;;;25.61;35.46;94333.13;4874892;29;7913;-62
2023/01/21 13:04:02;;;;;;;;;;;;;;;25.58;35.23;94342.41;4875729;29;7513;-62
2023/01/21 13:06:42;;;;;;;;;;;;;;;25.55;35.26;94337.94;4876681;29;7296;-62
2023/01/21 13:09:33;;;;;;;;;;;;;;;25.58;34.89;94349.94;4872457;29;7280;-62
2023/01/21 13:12:24;;;;;;;;;;;;;;;25.60;35.43;94339.91;4860677;29;7046;-62
2023/01/21 13:15:17;;;;;;;;;;;;;;;25.58;35.33;94342.41;4865244;29;8859;-62
2023/01/21 13:17:50;;;;;;;;;;;;;;;25.59;35.15;94349.44;4871181;29;8531;-62
2023/01/21 13:20:22;;;;;;;;;;;;;;;25.55;35.09;94356.47;4875491;29;7500;-62
2023/01/21 13:23:14;;;;;;;;;;;;;;;25.54;35.01;94347.44;4863013;29;7071;-62
2023/01/21 13:26:05;;;;;;;;;;;;;;;25.53;35.98;94357.00;4875764;29;8588;-63
2023/01/21 13:29:05;;;;;;;;;;;;;;;25.54;35.03;94352.97;4873017;29;7859;-63
2023/01/21 13:31:34;;;;;;;;;;;;;;;25.54;35.31;94363.22;4809866;29;7315;-62
2023/01/21 13:34:02;;;;;;;;;;;;;;;25.50;35.52;94363.50;4840292;29;9018;-63
2023/01/21 13:36:31;;;;;;;;;;;;;;;25.54;35.07;94358.47;4841939;29;7096;-63
2023/01/21 13:39:03;;;;;;;;;;;;;;;25.54;35.78;94363.22;4843154;29;7628;-62
2023/01/21 13:41:58;;;;;;;;;;;;;;;25.53;34.94;94373.50;4858242;29;9155;-62
2023/01/21 13:44:39;;;;;;;;;;;;;;;25.52;34.87;94365.75;4858083;29;8923;-62
2023/01/21 13:47:18;;;;;;;;;;;;;;;25.51;35.49;94367.00;4850430;29;8141;-63